createdAt,value
2018-05-12T00:00:01.695Z,69.63
2018-05-12T00:02:29.159Z,70.37
2018-05-12T00:04:56.619Z,70.43
2018-05-12T00:07:24.052Z,70.84
2018-05-12T00:09:51.506Z,71.21
2018-05-12T00:12:18.954Z,70.38
2018-05-12T00:14:46.410Z,68.84
2018-05-12T00:17:13.869Z,69.54
2018-05-12T00:19:41.330Z,69.66
2018-05-12T00:22:08.800Z,69.17
2018-05-12T00:24:36.241Z,69.97
2018-05-12T00:27:03.698Z,70.17
2018-05-12T00:29:31.141Z,70.50
2018-05-12T00:31:58.591Z,70.41
2018-05-12T00:34:26.046Z,70.54
2018-05-12T00:36:53.559Z,71.01
2018-05-12T00:39:21.001Z,71.15
2018-05-12T00:41:48.441Z,71.50
2018-05-12T00:44:15.887Z,71.50
2018-05-12T00:46:43.470Z,71.54
2018-05-12T00:49:10.910Z,72.18
2018-05-12T00:51:38.351Z,72.14
2018-05-12T00:54:05.796Z,72.09
2018-05-12T00:56:33.325Z,72.10
2018-05-12T00:59:00.887Z,72.05
2018-05-12T01:01:28.335Z,71.83
2018-05-12T01:03:55.902Z,71.86
2018-05-12T01:06:23.448Z,72.52
2018-05-12T01:08:50.923Z,72.51
2018-05-12T01:11:18.470Z,71.96
2018-05-12T01:13:45.991Z,71.95
2018-05-12T01:16:13.443Z,71.76
2018-05-12T01:18:40.871Z,72.04
2018-05-12T01:21:08.303Z,72.51
2018-05-12T01:23:35.849Z,73.17
2018-05-12T01:26:03.281Z,72.88
2018-05-12T01:28:30.728Z,72.85
2018-05-12T01:30:58.232Z,73.12
2018-05-12T01:33:25.675Z,72.79
2018-05-12T01:35:53.127Z,73.07
2018-05-12T01:38:21.565Z,73.65
2018-05-12T01:40:49.027Z,74.19
2018-05-12T01:43:16.463Z,74.50
2018-05-12T01:45:43.887Z,74.69
2018-05-12T01:48:11.321Z,75.35
2018-05-12T01:50:38.794Z,74.30
2018-05-12T01:53:06.238Z,74.07
2018-05-12T01:55:33.677Z,72.73
2018-05-12T01:58:01.131Z,72.00
2018-05-12T02:00:28.648Z,71.22
2018-05-12T02:02:56.125Z,71.00
2018-05-12T02:05:23.610Z,71.29
2018-05-12T02:07:51.062Z,71.51
2018-05-12T02:10:18.516Z,71.76
2018-05-12T02:12:45.952Z,72.07
2018-05-12T02:15:13.599Z,72.49
2018-05-12T02:17:41.043Z,73.48
2018-05-12T02:20:08.606Z,72.63
2018-05-12T02:22:36.054Z,73.98
2018-05-12T02:25:03.626Z,73.91
2018-05-12T02:27:31.055Z,74.41
2018-05-12T02:29:58.537Z,72.96
2018-05-12T02:32:25.993Z,73.18
2018-05-12T02:34:53.458Z,73.29
2018-05-12T02:37:20.911Z,73.10
2018-05-12T02:39:48.360Z,71.84
2018-05-12T02:42:15.820Z,72.10
2018-05-12T02:44:43.278Z,73.00
2018-05-12T02:47:10.741Z,72.40
2018-05-12T02:49:38.188Z,71.58
2018-05-12T02:52:05.644Z,71.62
2018-05-12T02:57:06.846Z,72.94
2018-05-12T02:59:34.318Z,73.98
2018-05-12T03:02:01.754Z,74.71
2018-05-12T03:04:29.467Z,73.76
2018-05-12T03:06:56.933Z,73.43
2018-05-12T03:09:24.371Z,73.44
2018-05-12T03:11:51.810Z,73.41
2018-05-12T03:14:19.251Z,73.19
2018-05-12T03:16:46.706Z,73.16
2018-05-12T03:19:14.226Z,73.00
2018-05-12T03:21:41.675Z,72.85
2018-05-12T03:24:09.141Z,72.13
2018-05-12T03:26:36.584Z,71.71
2018-05-12T03:29:04.026Z,72.06
2018-05-12T03:31:31.509Z,71.89
2018-05-12T03:33:58.971Z,71.42
2018-05-12T03:36:26.479Z,71.62
2018-05-12T03:38:53.944Z,72.80
2018-05-12T03:41:21.397Z,72.25
2018-05-12T03:43:48.923Z,71.56
2018-05-12T03:46:16.454Z,70.59
2018-05-12T03:48:44.391Z,71.19
2018-05-12T03:51:11.842Z,70.84
2018-05-12T03:53:39.277Z,71.74
2018-05-12T03:56:06.722Z,72.58
2018-05-12T03:58:34.157Z,72.64
2018-05-12T04:01:01.602Z,73.00
2018-05-12T04:03:29.070Z,73.27
2018-05-12T04:06:08.406Z,73.08
2018-05-12T04:08:47.653Z,73.02
2018-05-12T04:11:26.846Z,72.23
2018-05-12T04:13:54.279Z,73.19
2018-05-12T04:16:21.715Z,74.01
2018-05-12T04:18:49.193Z,73.40
2018-05-12T04:21:16.630Z,73.85
2018-05-12T04:23:44.073Z,73.57
2018-05-12T04:26:11.518Z,73.48
2018-05-12T04:28:38.961Z,73.20
2018-05-12T04:31:06.398Z,72.62
2018-05-12T04:33:33.890Z,72.48
2018-05-12T04:36:01.330Z,72.36
2018-05-12T04:38:28.777Z,72.24
2018-05-12T04:40:56.245Z,71.98
2018-05-12T04:43:23.703Z,72.36
2018-05-12T04:45:51.189Z,71.97
2018-05-12T04:48:18.827Z,71.37
2018-05-12T04:50:46.259Z,71.91
2018-05-12T04:53:13.706Z,71.35
2018-05-12T04:55:41.158Z,70.97
2018-05-12T04:58:08.614Z,70.10
2018-05-12T05:00:36.047Z,70.54
2018-05-12T05:03:03.573Z,69.85
2018-05-12T05:05:31.011Z,69.46
2018-05-12T05:07:58.548Z,69.84
2018-05-12T05:10:26.003Z,69.96
2018-05-12T05:12:53.449Z,68.35
2018-05-12T05:15:21.103Z,68.67
2018-05-12T05:17:48.527Z,70.03
2018-05-12T05:20:15.989Z,69.84
2018-05-12T05:22:43.437Z,68.86
2018-05-12T05:25:10.934Z,68.56
2018-05-12T05:27:38.346Z,67.85
2018-05-12T05:30:05.800Z,68.15
2018-05-12T05:32:33.243Z,67.44
2018-05-12T05:35:00.704Z,66.85
2018-05-12T05:37:28.171Z,66.81
2018-05-12T05:39:55.622Z,66.44
2018-05-12T05:42:23.064Z,66.15
2018-05-12T05:44:50.522Z,65.91
2018-05-12T05:47:18.136Z,66.41
2018-05-12T05:49:45.728Z,65.92
2018-05-12T05:52:13.212Z,66.22
2018-05-12T05:54:40.778Z,65.23
2018-05-12T05:57:08.251Z,65.22
2018-05-12T05:59:35.734Z,65.85
2018-05-12T06:02:03.201Z,62.79
2018-05-12T06:04:30.649Z,62.65
2018-05-12T06:06:58.095Z,65.13
2018-05-12T06:09:25.653Z,66.04
2018-05-12T06:11:54.282Z,62.37
2018-05-12T06:14:21.811Z,64.50
2018-05-12T06:16:49.284Z,63.59
2018-05-12T06:19:16.750Z,63.18
2018-05-12T06:21:44.193Z,63.81
2018-05-12T06:24:11.640Z,61.31
2018-05-12T06:26:39.081Z,61.19
2018-05-12T06:29:06.538Z,61.02
2018-05-12T06:31:34.078Z,60.99
2018-05-12T06:34:01.624Z,59.61
2018-05-12T06:36:29.066Z,59.71
2018-05-12T06:38:56.517Z,60.60
2018-05-12T06:41:23.983Z,59.20
2018-05-12T06:43:51.438Z,56.92
2018-05-12T06:46:18.898Z,57.28
2018-05-12T06:48:46.344Z,54.68
2018-05-12T06:51:13.787Z,56.14
2018-05-12T06:53:41.220Z,58.63
2018-05-12T06:56:08.671Z,57.58
2018-05-12T06:58:36.115Z,56.46
2018-05-12T07:01:03.552Z,55.87
2018-05-12T07:03:30.993Z,55.55
2018-05-12T07:05:58.444Z,57.50
2018-05-12T07:08:25.943Z,54.72
2018-05-12T07:10:53.391Z,54.61
2018-05-12T07:13:20.845Z,54.45
2018-05-12T07:15:48.388Z,53.20
2018-05-12T07:18:15.834Z,53.73
2018-05-12T07:20:43.286Z,52.72
2018-05-12T07:23:10.737Z,52.39
2018-05-12T07:25:38.193Z,52.16
2018-05-12T07:28:05.751Z,53.40
2018-05-12T07:30:33.186Z,53.28
2018-05-12T07:33:00.724Z,50.42
2018-05-12T07:35:28.179Z,52.62
2018-05-12T07:37:55.617Z,51.62
2018-05-12T07:40:23.068Z,51.81
2018-05-12T07:42:50.498Z,52.28
2018-05-12T07:45:18.016Z,52.00
2018-05-12T07:47:45.548Z,51.11
2018-05-12T07:50:12.986Z,51.52
2018-05-12T07:52:40.430Z,48.91
2018-05-12T07:55:07.870Z,50.51
2018-05-12T07:57:35.387Z,50.10
2018-05-12T08:00:02.829Z,49.88
2018-05-12T08:02:30.389Z,49.78
2018-05-12T08:04:57.837Z,48.42
2018-05-12T08:07:25.273Z,49.22
2018-05-12T08:09:52.724Z,47.16
2018-05-12T08:12:20.289Z,48.52
2018-05-12T08:14:47.729Z,47.37
2018-05-12T08:17:15.245Z,46.78
2018-05-12T08:19:42.707Z,48.37
2018-05-12T08:22:10.154Z,48.41
2018-05-12T08:24:37.576Z,47.51
2018-05-12T08:27:05.048Z,47.91
2018-05-12T08:29:32.525Z,47.70
2018-05-12T08:31:59.956Z,48.02
2018-05-12T08:34:27.401Z,49.13
2018-05-12T08:36:54.841Z,46.39
2018-05-12T08:39:22.281Z,45.76
2018-05-12T08:41:50.227Z,45.85
2018-05-12T08:44:17.674Z,45.56
2018-05-12T08:46:45.121Z,44.93
2018-05-12T08:49:12.552Z,45.97
2018-05-12T08:51:40.039Z,45.33
2018-05-12T08:54:07.502Z,44.51
2018-05-12T08:56:34.970Z,43.97
2018-05-12T08:59:02.408Z,43.79
2018-05-12T09:01:29.885Z,43.85
2018-05-12T09:03:57.319Z,43.14
2018-05-12T09:06:24.783Z,44.37
2018-05-12T09:08:52.269Z,43.02
2018-05-12T09:11:19.875Z,43.93
2018-05-12T09:13:47.360Z,42.66
2018-05-12T09:16:14.817Z,43.18
2018-05-12T09:18:42.283Z,42.81
2018-05-12T09:21:09.842Z,42.17
2018-05-12T09:23:37.289Z,41.97
2018-05-12T09:26:05.418Z,42.56
2018-05-12T09:28:32.931Z,42.40
2018-05-12T09:31:00.377Z,41.67
2018-05-12T09:33:27.937Z,41.70
2018-05-12T09:35:55.393Z,40.74
2018-05-12T09:38:22.930Z,42.38
2018-05-12T09:40:50.398Z,42.68
2018-05-12T09:43:17.851Z,43.44
2018-05-12T09:45:45.290Z,42.10
2018-05-12T09:48:12.732Z,40.56
2018-05-12T09:50:40.260Z,41.58
2018-05-12T09:53:07.716Z,42.20
2018-05-12T09:55:35.157Z,42.92
2018-05-12T09:58:02.692Z,40.46
2018-05-12T10:00:30.154Z,40.13
2018-05-12T10:02:57.640Z,38.71
2018-05-12T10:05:25.115Z,38.55
2018-05-12T10:07:57.640Z,39.51
2018-05-12T10:10:25.094Z,38.16
2018-05-12T10:12:52.590Z,38.49
2018-05-12T10:15:20.039Z,38.12
2018-05-12T10:17:47.502Z,38.23
2018-05-12T10:20:14.979Z,36.43
2018-05-12T10:22:42.540Z,36.02
2018-05-12T10:25:10.009Z,35.03
2018-05-12T10:27:37.436Z,34.90
2018-05-12T10:30:04.868Z,33.75
2018-05-12T10:32:32.307Z,33.63
2018-05-12T10:34:59.790Z,34.27
2018-05-12T10:37:27.234Z,33.21
2018-05-12T10:39:54.678Z,34.06
2018-05-12T10:42:22.354Z,32.65
2018-05-12T10:44:49.803Z,34.22
2018-05-12T10:47:17.244Z,33.56
2018-05-12T10:49:44.687Z,33.47
2018-05-12T10:52:12.182Z,33.03
2018-05-12T10:54:39.620Z,33.77
2018-05-12T10:57:07.205Z,34.04
2018-05-12T10:59:34.644Z,34.02
2018-05-12T11:02:02.230Z,33.33
2018-05-12T11:04:29.581Z,34.16
2018-05-12T11:06:57.005Z,34.79
2018-05-12T11:09:24.510Z,35.90
2018-05-12T11:11:51.942Z,33.14
2018-05-12T11:14:19.386Z,32.73
2018-05-12T11:16:46.829Z,32.96
2018-05-12T11:19:14.329Z,32.63
2018-05-12T11:21:41.898Z,31.87
2018-05-12T11:24:09.246Z,30.21
2018-05-12T11:26:36.722Z,31.05
2018-05-12T11:29:04.284Z,29.58
2018-05-12T11:31:31.728Z,30.03
2018-05-12T11:33:59.183Z,29.73
2018-05-12T11:36:26.631Z,29.88
2018-05-12T11:38:54.075Z,27.76
2018-05-12T11:41:21.536Z,27.33
2018-05-12T11:43:49.047Z,26.04
2018-05-12T11:46:16.485Z,25.31
2018-05-12T11:48:43.941Z,25.02
2018-05-12T11:51:11.384Z,24.98
2018-05-12T11:53:38.811Z,25.92
2018-05-12T11:56:06.252Z,27.44
2018-05-12T11:58:33.704Z,27.70
2018-05-12T12:01:01.160Z,27.42
2018-05-12T12:03:28.639Z,26.08
2018-05-12T12:05:56.086Z,23.89
2018-05-12T12:08:23.543Z,20.31
2018-05-12T12:10:51.019Z,17.96
2018-05-12T12:13:18.440Z,17.97
2018-05-12T12:15:45.855Z,17.47
2018-05-12T12:18:13.345Z,16.32
2018-05-12T12:20:40.781Z,15.66
2018-05-12T12:23:08.250Z,16.23
2018-05-12T12:25:35.685Z,16.63
2018-05-12T12:28:03.111Z,16.41
2018-05-12T12:30:30.571Z,15.61
2018-05-12T12:32:58.058Z,13.26
2018-05-12T12:35:25.610Z,12.64
2018-05-12T12:37:53.057Z,10.60
2018-05-12T12:40:20.499Z,10.60
2018-05-12T12:42:47.977Z,10.00
2018-05-12T12:45:15.439Z,10.52
2018-05-12T12:47:42.885Z,10.73
2018-05-12T12:50:10.314Z,9.18
2018-05-12T12:52:37.743Z,9.94
2018-05-12T12:55:05.290Z,9.12
2018-05-12T12:57:32.821Z,8.67
2018-05-12T13:00:00.283Z,8.95
2018-05-12T13:02:27.722Z,8.52
2018-05-12T13:04:55.260Z,8.77
2018-05-12T13:07:22.637Z,8.33
2018-05-12T13:09:50.091Z,8.04
2018-05-12T13:12:17.512Z,7.76
2018-05-12T13:14:44.949Z,7.30
2018-05-12T13:17:12.474Z,6.96
2018-05-12T13:19:39.942Z,7.71
2018-05-12T13:22:07.521Z,6.89
2018-05-12T13:24:34.954Z,7.51
2018-05-12T13:27:02.476Z,7.65
2018-05-12T13:29:29.913Z,7.73
2018-05-12T13:31:57.432Z,8.54
2018-05-12T13:34:24.878Z,9.05
2018-05-12T13:36:52.302Z,11.43
2018-05-12T13:39:19.757Z,13.19
2018-05-12T13:41:47.198Z,13.21
2018-05-12T13:44:14.630Z,14.16
2018-05-12T13:46:42.061Z,15.98
2018-05-12T13:49:09.639Z,16.42
2018-05-12T13:51:37.132Z,15.93
2018-05-12T13:54:04.615Z,14.24
2018-05-12T13:56:32.048Z,12.66
2018-05-12T13:58:59.526Z,12.31
2018-05-12T14:01:26.940Z,12.73
2018-05-12T14:03:54.413Z,12.98
2018-05-12T14:06:21.943Z,12.32
2018-05-12T14:08:49.389Z,12.55
2018-05-12T14:11:16.865Z,11.56
2018-05-12T14:13:44.401Z,10.46
2018-05-12T14:16:11.950Z,9.05
2018-05-12T14:18:39.309Z,8.92
2018-05-12T14:21:06.738Z,8.42
2018-05-12T14:23:34.178Z,7.96
2018-05-12T14:26:01.625Z,7.60
2018-05-12T14:28:29.066Z,7.64
2018-05-12T14:30:56.490Z,8.16
2018-05-12T14:33:23.937Z,7.39
2018-05-12T14:35:51.362Z,7.00
2018-05-12T14:38:18.811Z,7.68
2018-05-12T14:40:46.259Z,8.18
2018-05-12T14:43:13.786Z,7.37
2018-05-12T14:45:41.237Z,7.83
2018-05-12T14:48:08.694Z,9.17
2018-05-12T14:50:36.150Z,9.34
2018-05-12T14:53:04.080Z,10.88
2018-05-12T14:55:31.514Z,11.96
2018-05-12T14:57:58.987Z,13.79
2018-05-12T15:00:26.490Z,14.60
2018-05-12T15:02:53.950Z,15.22
2018-05-12T15:05:21.421Z,15.77
2018-05-12T15:07:48.873Z,16.08
2018-05-12T15:10:16.306Z,15.24
2018-05-12T15:12:43.752Z,14.60
2018-05-12T15:15:11.208Z,15.36
2018-05-12T15:17:38.697Z,16.65
2018-05-12T15:20:06.146Z,17.54
2018-05-12T15:22:33.598Z,19.16
2018-05-12T15:25:01.096Z,19.26
2018-05-12T15:27:28.576Z,20.49
2018-05-12T15:29:56.214Z,20.81
2018-05-12T15:32:23.775Z,21.62
2018-05-12T15:34:51.246Z,21.69
2018-05-12T15:37:18.718Z,20.76
2018-05-12T15:39:46.140Z,19.12
2018-05-12T15:42:13.578Z,19.89
2018-05-12T15:44:41.020Z,19.00
2018-05-12T15:47:08.459Z,18.67
2018-05-12T15:49:35.977Z,16.49
2018-05-12T15:52:03.534Z,15.78
2018-05-12T15:54:30.969Z,14.71
2018-05-12T15:56:58.413Z,13.98
2018-05-12T15:59:25.953Z,13.80
2018-05-12T16:01:53.430Z,13.65
2018-05-12T16:04:20.861Z,13.47
2018-05-12T16:06:48.322Z,13.82
2018-05-12T16:09:15.918Z,15.40
2018-05-12T16:11:43.376Z,16.70
2018-05-12T16:14:10.800Z,17.59
2018-05-12T16:16:38.262Z,19.37
2018-05-12T16:19:06.150Z,19.20
2018-05-12T16:21:33.585Z,19.55
2018-05-12T16:24:01.058Z,20.05
2018-05-12T16:26:28.513Z,20.45
2018-05-12T16:28:55.987Z,20.79
2018-05-12T16:31:23.553Z,21.13
2018-05-12T16:33:50.921Z,21.41
2018-05-12T16:36:18.355Z,20.99
2018-05-12T16:38:45.776Z,20.21
2018-05-12T16:41:13.276Z,20.74
2018-05-12T16:43:40.794Z,19.64
2018-05-12T16:46:08.273Z,20.11
2018-05-12T16:48:35.708Z,20.16
2018-05-12T16:51:03.384Z,19.88
2018-05-12T16:53:30.737Z,20.06
2018-05-12T16:55:58.168Z,20.34
2018-05-12T16:58:25.666Z,20.57
2018-05-12T17:00:53.127Z,20.77
2018-05-12T17:03:20.649Z,20.41
2018-05-12T17:05:48.034Z,20.76
2018-05-12T17:08:15.537Z,21.14
2018-05-12T17:10:43.050Z,21.16
2018-05-12T17:13:10.540Z,21.21
2018-05-12T17:15:37.926Z,21.59
2018-05-12T17:18:05.367Z,22.00
2018-05-12T17:20:32.995Z,22.42
2018-05-12T17:23:00.464Z,22.53
2018-05-12T17:25:27.913Z,24.05
2018-05-12T17:27:55.347Z,24.64
2018-05-12T17:30:22.795Z,25.31
2018-05-12T17:32:50.376Z,25.25
2018-05-12T17:35:17.850Z,26.02
2018-05-12T17:37:45.337Z,26.92
2018-05-12T17:40:12.850Z,26.31
2018-05-12T17:42:40.289Z,28.58
2018-05-12T17:45:07.750Z,28.72
2018-05-12T17:47:35.204Z,29.85
2018-05-12T17:50:02.776Z,29.20
2018-05-12T17:52:30.122Z,29.12
2018-05-12T17:54:57.593Z,29.81
2018-05-12T17:57:25.024Z,29.38
2018-05-12T17:59:52.465Z,29.88
2018-05-12T18:02:19.905Z,30.13
2018-05-12T18:04:47.427Z,30.83
2018-05-12T18:07:14.989Z,31.04
2018-05-12T18:12:07.017Z,31.92
2018-05-12T18:14:34.468Z,32.25
2018-05-12T18:17:01.946Z,32.80
2018-05-12T18:19:29.399Z,33.10
2018-05-12T18:21:56.875Z,33.78
2018-05-12T18:24:24.412Z,34.30
2018-05-12T18:26:51.936Z,34.01
2018-05-12T18:29:19.400Z,34.63
2018-05-12T18:31:46.831Z,34.63
2018-05-12T18:34:14.325Z,35.00
2018-05-12T18:36:41.793Z,35.68
2018-05-12T18:39:09.267Z,35.18
2018-05-12T18:41:36.702Z,35.44
2018-05-12T18:44:04.129Z,36.02
2018-05-12T18:46:31.592Z,35.79
2018-05-12T18:48:59.718Z,36.25
2018-05-12T18:51:27.146Z,36.43
2018-05-12T18:53:54.564Z,37.10
2018-05-12T18:56:21.994Z,36.82
2018-05-12T18:58:49.426Z,37.38
2018-05-12T19:01:16.836Z,38.47
2018-05-12T19:03:44.295Z,37.80
2018-05-12T19:06:11.846Z,38.20
2018-05-12T19:08:39.364Z,37.94
2018-05-12T19:11:06.928Z,38.90
2018-05-12T19:13:34.393Z,39.00
2018-05-12T19:16:01.808Z,38.92
2018-05-12T19:18:29.255Z,39.30
2018-05-12T19:20:56.702Z,39.32
2018-05-12T19:23:24.147Z,39.55
2018-05-12T19:25:51.594Z,40.52
2018-05-12T19:28:19.027Z,40.17
2018-05-12T19:30:46.578Z,40.61
2018-05-12T19:33:14.024Z,41.23
2018-05-12T19:35:41.486Z,41.70
2018-05-12T19:38:08.912Z,41.70
2018-05-12T19:40:36.363Z,41.98
2018-05-12T19:43:03.966Z,42.08
2018-05-12T19:45:31.392Z,42.27
2018-05-12T19:47:58.846Z,42.96
2018-05-12T19:50:26.334Z,42.65
2018-05-12T19:52:53.762Z,42.96
2018-05-12T19:55:21.207Z,42.98
2018-05-12T19:57:48.707Z,43.24
2018-05-12T20:00:16.168Z,43.69
2018-05-12T20:02:43.691Z,43.45
2018-05-12T20:05:11.113Z,43.99
2018-05-12T20:07:38.642Z,44.40
2018-05-12T20:10:06.120Z,44.64
2018-05-12T20:12:33.556Z,44.37
2018-05-12T20:15:01.014Z,44.52
2018-05-12T20:17:28.460Z,44.93
2018-05-12T20:19:55.937Z,44.41
2018-05-12T20:22:23.522Z,44.25
2018-05-12T20:24:51.059Z,44.62
2018-05-12T20:27:18.500Z,44.60
2018-05-12T20:29:45.994Z,44.63
2018-05-12T20:32:13.888Z,45.56
2018-05-12T20:34:41.445Z,45.25
2018-05-12T20:37:08.954Z,45.21
2018-05-12T20:39:36.439Z,46.47
2018-05-12T20:42:04.105Z,45.94
2018-05-12T20:44:31.543Z,46.64
2018-05-12T20:46:59.091Z,46.62
2018-05-12T20:49:26.610Z,47.19
2018-05-12T20:51:54.702Z,46.75
2018-05-12T20:54:22.201Z,47.13
2018-05-12T20:56:49.662Z,47.50
2018-05-12T20:59:17.141Z,47.52
2018-05-12T21:01:44.609Z,47.95
2018-05-12T21:04:12.058Z,48.06
2018-05-12T21:06:39.554Z,48.27
2018-05-12T21:09:06.991Z,47.94
2018-05-12T21:11:34.466Z,48.05
2018-05-12T21:14:01.905Z,47.77
2018-05-12T21:16:29.354Z,47.69
2018-05-12T21:18:57.029Z,47.89
2018-05-12T21:21:24.508Z,48.18
2018-05-12T21:23:52.004Z,48.27
2018-05-12T21:26:19.418Z,48.85
2018-05-12T21:28:46.868Z,48.22
2018-05-12T21:31:14.565Z,48.37
2018-05-12T21:33:42.046Z,48.31
2018-05-12T21:36:09.527Z,50.04
2018-05-12T21:38:36.986Z,49.92
2018-05-12T21:41:04.435Z,50.37
2018-05-12T21:43:31.901Z,50.28
2018-05-12T21:45:59.638Z,50.51
2018-05-12T21:48:27.189Z,50.61
2018-05-12T21:50:54.659Z,50.92
2018-05-12T21:53:22.161Z,51.11
2018-05-12T21:55:49.721Z,50.74
2018-05-12T21:58:17.162Z,50.41
2018-05-12T22:00:44.594Z,50.37
2018-05-12T22:03:12.125Z,50.65
2018-05-12T22:05:39.684Z,50.88
2018-05-12T22:08:08.218Z,51.43
2018-05-12T22:10:35.672Z,51.75
2018-05-12T22:13:03.202Z,51.92
2018-05-12T22:15:30.663Z,52.32
2018-05-12T22:17:58.105Z,52.73
2018-05-12T22:20:25.599Z,52.89
2018-05-12T22:22:53.065Z,53.18
2018-05-12T22:25:20.856Z,53.20
2018-05-12T22:27:48.326Z,54.01
2018-05-12T22:30:15.875Z,53.53
2018-05-12T22:32:43.346Z,53.87
2018-05-12T22:35:10.909Z,53.97
2018-05-12T22:37:38.588Z,53.23
2018-05-12T22:40:06.012Z,53.90
2018-05-12T22:42:33.526Z,54.26
2018-05-12T22:45:00.995Z,54.47
2018-05-12T22:47:28.447Z,54.49
2018-05-12T22:49:55.918Z,54.01
2018-05-12T22:52:23.543Z,52.87
2018-05-12T22:54:51.002Z,54.28
2018-05-12T22:57:18.531Z,53.98
2018-05-12T22:59:46.086Z,54.65
2018-05-12T23:02:13.597Z,55.28
2018-05-12T23:04:41.116Z,55.29
2018-05-12T23:07:08.640Z,55.86
2018-05-12T23:09:36.106Z,56.01
2018-05-12T23:12:03.556Z,55.62
2018-05-12T23:14:31.071Z,55.67
2018-05-12T23:16:58.608Z,55.95
2018-05-12T23:19:26.068Z,56.29
2018-05-12T23:21:54.060Z,56.14
2018-05-12T23:24:21.522Z,56.09
2018-05-12T23:26:49.019Z,56.44
2018-05-12T23:29:16.503Z,56.74
2018-05-12T23:31:44.026Z,56.92
2018-05-12T23:34:11.469Z,57.81
2018-05-12T23:36:38.941Z,57.34
2018-05-12T23:39:06.432Z,58.69
2018-05-12T23:41:33.879Z,58.81
2018-05-12T23:44:01.357Z,59.20
2018-05-12T23:46:28.912Z,59.44
2018-05-12T23:48:56.416Z,60.47
2018-05-12T23:51:24.032Z,59.69
2018-05-12T23:53:51.480Z,59.42
2018-05-12T23:56:18.998Z,58.94
2018-05-12T23:58:46.433Z,59.40
